createdAt,value
2023-03-26T00:02:15.563Z,37.18
2023-03-26T00:05:03.138Z,37.21
2023-03-26T00:07:50.049Z,37.05
2023-03-26T00:10:39.317Z,37.20
2023-03-26T00:13:26.442Z,37.14
2023-03-26T00:16:17.268Z,37.20
2023-03-26T00:19:04.377Z,37.02
2023-03-26T00:21:52.562Z,37.14
2023-03-26T00:24:40.849Z,37.24
2023-03-26T00:27:27.865Z,37.17
2023-03-26T00:30:15.601Z,37.10
2023-03-26T00:33:03.419Z,37.03
2023-03-26T00:35:56.938Z,37.04
2023-03-26T00:38:45.276Z,37.05
2023-03-26T00:41:32.884Z,36.96
2023-03-26T00:44:20.929Z,37.05
2023-03-26T00:47:08.835Z,37.07
2023-03-26T00:49:56.394Z,37.01
2023-03-26T00:52:46.323Z,36.92
2023-03-26T00:55:34.620Z,37.02
2023-03-26T00:58:22.516Z,37.03
2023-03-26T01:01:13.988Z,36.97
2023-03-26T01:04:27.499Z,37.15
2023-03-26T01:07:21.904Z,37.09
2023-03-26T01:10:09.538Z,36.95
2023-03-26T01:12:56.756Z,37.04
2023-03-26T01:15:50.023Z,37.05
2023-03-26T01:18:41.161Z,36.94
2023-03-26T01:21:30.571Z,36.98
2023-03-26T01:24:18.030Z,36.95
2023-03-26T01:27:33.813Z,36.94
2023-03-26T01:31:04.343Z,36.98
2023-03-26T01:34:18.814Z,37.05
2023-03-26T01:37:15.455Z,36.95
2023-03-26T01:40:16.410Z,37.01
2023-03-26T01:43:13.791Z,37.03
2023-03-26T01:46:04.349Z,37.05
2023-03-26T01:48:51.771Z,37.03
2023-03-26T01:51:41.446Z,36.87
2023-03-26T01:54:31.871Z,36.90
2023-03-26T01:57:27.776Z,36.86
2023-03-26T02:00:32.430Z,36.95
2023-03-26T02:03:31.649Z,36.96
2023-03-26T02:06:38.592Z,36.97
2023-03-26T02:09:31.062Z,37.00
2023-03-26T02:12:22.603Z,36.94
2023-03-26T02:15:09.983Z,37.08
2023-03-26T02:17:56.741Z,36.96
2023-03-26T02:20:43.698Z,36.85
2023-03-26T02:23:30.475Z,36.98
2023-03-26T02:26:19.922Z,37.04
2023-03-26T02:29:21.442Z,37.01
2023-03-26T02:32:13.352Z,37.06
2023-03-26T02:35:00.280Z,36.94
2023-03-26T02:37:51.136Z,36.95
2023-03-26T02:40:40.355Z,36.95
2023-03-26T02:43:28.230Z,37.03
2023-03-26T02:46:15.991Z,37.14
2023-03-26T02:49:14.311Z,37.06
2023-03-26T02:52:06.742Z,36.95
2023-03-26T02:54:55.476Z,36.93
2023-03-26T02:57:44.162Z,37.03
2023-03-26T03:00:40.294Z,37.03
2023-03-26T03:03:41.663Z,37.02
2023-03-26T03:06:45.494Z,37.04
2023-03-26T03:09:32.991Z,36.95
2023-03-26T03:12:43.246Z,36.96
2023-03-26T03:15:31.494Z,36.96
2023-03-26T03:18:18.714Z,36.94
2023-03-26T03:21:06.911Z,37.03
2023-03-26T03:24:00.242Z,36.96
2023-03-26T03:26:50.416Z,37.11
2023-03-26T03:29:46.549Z,36.88
2023-03-26T03:32:54.194Z,36.98
2023-03-26T03:35:42.815Z,36.95
2023-03-26T03:38:30.946Z,36.97
2023-03-26T03:41:18.858Z,37.04
2023-03-26T03:44:06.227Z,36.92
2023-03-26T03:46:55.672Z,36.91
2023-03-26T03:49:42.993Z,36.90
2023-03-26T03:52:30.226Z,36.88
2023-03-26T03:55:17.455Z,36.96
2023-03-26T03:58:14.799Z,36.88
2023-03-26T04:01:03.230Z,36.84
2023-03-26T04:04:02.663Z,36.94
2023-03-26T04:07:05.559Z,36.84
2023-03-26T04:10:20.104Z,36.89
2023-03-26T04:13:26.175Z,36.93
2023-03-26T04:16:13.353Z,36.85
2023-03-26T04:19:02.418Z,36.81
2023-03-26T04:21:49.769Z,36.96
2023-03-26T04:24:40.375Z,36.74
2023-03-26T04:27:55.859Z,36.86
2023-03-26T04:31:06.339Z,36.90
2023-03-26T04:34:05.853Z,36.77
2023-03-26T04:36:56.394Z,36.80
2023-03-26T04:39:47.230Z,36.83
2023-03-26T04:43:06.619Z,36.85
2023-03-26T04:46:14.807Z,36.83
2023-03-26T04:49:09.216Z,36.78
2023-03-26T04:51:56.526Z,36.74
2023-03-26T04:55:39.796Z,36.79
2023-03-26T04:58:33.342Z,36.90
2023-03-26T05:01:21.582Z,37.04
2023-03-26T05:04:09.172Z,37.09
2023-03-26T05:06:58.493Z,37.32
2023-03-26T05:09:54.206Z,37.27
2023-03-26T05:12:43.523Z,37.30
2023-03-26T05:15:35.721Z,37.26
2023-03-26T05:18:37.770Z,37.29
2023-03-26T05:21:25.236Z,37.17
2023-03-26T05:24:12.246Z,37.17
2023-03-26T05:26:59.447Z,37.14
2023-03-26T05:30:03.868Z,37.20
2023-03-26T05:32:54.426Z,37.29
2023-03-26T05:35:46.525Z,37.41
2023-03-26T05:38:34.191Z,37.97
2023-03-26T05:41:21.842Z,38.25
2023-03-26T05:44:09.189Z,38.28
2023-03-26T05:46:55.998Z,38.28
2023-03-26T05:49:44.526Z,38.51
2023-03-26T05:52:31.264Z,38.89
2023-03-26T05:55:37.224Z,39.08
2023-03-26T05:58:43.790Z,39.07
2023-03-26T06:01:51.033Z,39.05
2023-03-26T06:04:57.092Z,39.30
2023-03-26T06:07:46.848Z,39.46
2023-03-26T06:10:39.128Z,39.26
2023-03-26T06:13:25.864Z,39.14
2023-03-26T06:16:26.330Z,38.92
2023-03-26T06:19:53.256Z,38.87
2023-03-26T06:22:55.697Z,38.75
2023-03-26T06:26:01.367Z,38.68
2023-03-26T06:29:23.499Z,38.56
2023-03-26T06:32:29.059Z,38.47
2023-03-26T06:35:27.095Z,38.50
2023-03-26T06:38:13.782Z,38.24
2023-03-26T06:41:05.707Z,38.02
2023-03-26T06:44:11.435Z,38.04
2023-03-26T06:47:16.987Z,37.90
2023-03-26T06:50:24.195Z,37.89
2023-03-26T06:53:30.044Z,37.75
2023-03-26T06:56:28.841Z,37.83
2023-03-26T06:59:23.626Z,37.78
2023-03-26T07:02:29.212Z,37.58
2023-03-26T07:05:35.014Z,37.41
2023-03-26T07:08:41.063Z,37.35
2023-03-26T07:11:46.869Z,37.19
2023-03-26T07:14:52.912Z,37.19
2023-03-26T07:17:58.948Z,37.13
2023-03-26T07:20:52.246Z,36.99
2023-03-26T07:23:41.287Z,36.95
2023-03-26T07:27:00.865Z,36.85
2023-03-26T07:30:14.292Z,36.64
2023-03-26T07:33:37.898Z,36.59
2023-03-26T07:37:08.131Z,36.48
2023-03-26T07:41:03.564Z,36.45
2023-03-26T07:43:52.969Z,36.49
2023-03-26T07:47:26.330Z,36.36
2023-03-26T07:50:35.973Z,36.19
2023-03-26T07:53:31.067Z,36.15
2023-03-26T07:56:49.182Z,35.86
2023-03-26T08:00:12.196Z,35.85
2023-03-26T08:03:17.496Z,35.80
2023-03-26T08:06:36.232Z,35.75
2023-03-26T08:10:17.524Z,35.60
2023-03-26T08:13:35.102Z,35.44
2023-03-26T08:16:51.488Z,35.24
2023-03-26T08:19:47.432Z,35.18
2023-03-26T08:22:41.168Z,35.19
2023-03-26T08:25:48.934Z,35.14
2023-03-26T08:28:48.797Z,35.11
2023-03-26T08:31:41.578Z,35.04
2023-03-26T08:34:28.789Z,35.04
2023-03-26T08:37:15.707Z,34.97
2023-03-26T08:40:02.932Z,34.97
2023-03-26T08:43:19.333Z,34.89
2023-03-26T08:46:33.906Z,34.92
2023-03-26T08:49:51.806Z,34.73
2023-03-26T08:53:00.554Z,34.52
2023-03-26T08:56:01.710Z,34.58
2023-03-26T08:59:28.062Z,34.51
2023-03-26T09:02:23.884Z,34.63
2023-03-26T09:05:46.143Z,34.49
2023-03-26T09:09:06.816Z,34.43
2023-03-26T09:12:25.750Z,34.31
2023-03-26T09:15:34.053Z,34.31
2023-03-26T09:18:49.060Z,34.41
2023-03-26T09:21:48.374Z,34.17
2023-03-26T09:24:43.899Z,34.06
2023-03-26T09:27:34.184Z,33.96
2023-03-26T09:30:29.768Z,33.98
2023-03-26T09:33:25.638Z,33.94
2023-03-26T09:36:38.752Z,33.90
2023-03-26T09:39:53.314Z,33.88
2023-03-26T09:43:08.278Z,33.70
2023-03-26T09:46:13.479Z,33.61
2023-03-26T09:49:09.555Z,33.47
2023-03-26T09:52:18.073Z,33.22
2023-03-26T09:55:42.291Z,32.67
2023-03-26T09:58:47.818Z,32.68
2023-03-26T10:02:00.951Z,32.69
2023-03-26T13:39:33.426Z,31.33
2023-03-26T13:42:48.504Z,31.35
2023-03-26T13:45:46.450Z,31.65
2023-03-26T13:48:43.275Z,31.88
2023-03-26T13:51:50.671Z,31.91
2023-03-26T13:54:59.890Z,30.38
2023-03-26T13:57:57.146Z,30.59
2023-03-26T14:00:58.030Z,31.04
2023-03-26T14:04:00.779Z,31.25
2023-03-26T14:06:57.781Z,31.32
2023-03-26T14:09:51.902Z,31.43
2023-03-26T14:12:51.922Z,31.46
2023-03-26T14:16:00.665Z,31.46
2023-03-26T14:18:58.529Z,31.32
2023-03-26T14:22:04.276Z,31.32
2023-03-26T14:25:18.940Z,31.35
2023-03-26T14:28:32.829Z,31.43
2023-03-26T14:31:53.807Z,31.37
2023-03-26T14:34:59.256Z,31.29
2023-03-26T14:38:33.789Z,31.30
2023-03-26T14:41:45.990Z,31.39
2023-03-26T14:45:00.363Z,31.40
2023-03-26T14:48:15.623Z,31.37
2023-03-26T14:51:42.486Z,31.40
2023-03-26T14:54:34.508Z,31.38
2023-03-26T14:58:05.960Z,31.54
2023-03-26T15:01:17.816Z,31.43
2023-03-26T15:04:18.820Z,31.44
2023-03-26T15:07:18.967Z,31.55
2023-03-26T15:10:22.848Z,31.49
2023-03-26T15:13:47.042Z,31.46
2023-03-26T15:16:37.057Z,31.53
2023-03-26T15:19:36.854Z,31.58
2023-03-26T15:23:01.012Z,31.46
2023-03-26T15:26:08.003Z,31.52
2023-03-26T15:29:13.548Z,31.51
2023-03-26T15:32:41.570Z,31.54
2023-03-26T15:35:38.193Z,31.64
2023-03-26T15:38:30.812Z,31.57
2023-03-26T15:41:59.410Z,31.60
2023-03-26T15:45:31.309Z,31.57
2023-03-26T15:48:50.888Z,31.56
2023-03-26T15:51:47.015Z,31.60
2023-03-26T15:55:27.802Z,31.66
2023-03-26T15:58:50.183Z,31.68
2023-03-26T16:02:16.450Z,31.64
2023-03-26T16:05:19.580Z,31.75
2023-03-26T16:08:38.751Z,31.67
2023-03-26T16:11:44.554Z,31.73
2023-03-26T16:14:34.544Z,31.71
2023-03-26T16:17:23.867Z,31.67
2023-03-26T16:20:34.509Z,31.71
2023-03-26T16:23:27.360Z,31.72
2023-03-26T16:26:22.346Z,31.71
2023-03-26T16:29:18.272Z,31.66
2023-03-26T16:32:07.965Z,31.68
2023-03-26T16:34:58.339Z,31.72
2023-03-26T16:37:50.724Z,31.67
2023-03-26T16:40:59.740Z,31.76
2023-03-26T16:43:55.757Z,31.89
2023-03-26T16:47:16.254Z,31.93
2023-03-26T16:50:29.977Z,31.81
2023-03-26T16:53:42.917Z,31.78
2023-03-26T16:57:02.068Z,31.80
2023-03-26T17:00:06.232Z,31.82
2023-03-26T17:03:25.872Z,31.83
2023-03-26T17:06:23.969Z,31.83
2023-03-26T17:09:34.108Z,31.82
2023-03-26T17:12:48.775Z,31.94
2023-03-26T17:15:45.204Z,31.93
2023-03-26T17:18:47.403Z,32.01
2023-03-26T17:21:55.976Z,32.03
2023-03-26T17:25:05.027Z,31.99
2023-03-26T17:29:02.511Z,32.03
2023-03-26T17:32:08.824Z,32.00
2023-03-26T17:35:02.276Z,32.02
2023-03-26T17:37:49.966Z,32.03
2023-03-26T17:40:51.218Z,32.10
2023-03-26T17:43:51.922Z,32.10
2023-03-26T17:46:42.885Z,32.10
2023-03-26T17:49:33.436Z,32.10
2023-03-26T17:52:41.897Z,32.13
2023-03-26T17:55:36.998Z,32.11
2023-03-26T17:58:47.998Z,32.11
2023-03-26T18:01:38.805Z,32.11
2023-03-26T18:04:37.769Z,32.20
2023-03-26T18:07:41.889Z,32.05
2023-03-26T18:10:39.151Z,32.17
2023-03-26T18:13:50.184Z,32.24
2023-03-26T18:16:41.316Z,32.20
2023-03-26T18:19:29.062Z,32.22
2023-03-26T18:22:20.744Z,32.24
2023-03-26T18:25:25.332Z,32.30
2023-03-26T18:28:14.484Z,32.27
2023-03-26T18:31:31.524Z,32.27
2023-03-26T18:34:19.581Z,32.25
2023-03-26T18:37:18.944Z,32.30
2023-03-26T18:40:11.844Z,32.29
2023-03-26T18:43:00.940Z,32.37
2023-03-26T18:45:50.675Z,32.32
2023-03-26T18:48:37.664Z,32.31
2023-03-26T18:51:26.617Z,32.26
2023-03-26T18:54:18.916Z,32.37
2023-03-26T18:57:15.862Z,32.38
2023-03-26T19:00:23.470Z,32.33
2023-03-26T19:03:12.403Z,32.34
2023-03-26T19:06:00.002Z,32.32
2023-03-26T19:08:48.265Z,32.39
2023-03-26T19:11:38.333Z,32.32
2023-03-26T19:14:27.149Z,32.36
2023-03-26T19:17:14.108Z,32.40
2023-03-26T19:20:01.978Z,32.45
2023-03-26T19:22:50.700Z,32.35
2023-03-26T19:25:42.298Z,32.33
2023-03-26T19:28:36.013Z,32.39
2023-03-26T19:31:32.173Z,32.35
2023-03-26T19:34:39.819Z,32.45
2023-03-26T19:37:32.578Z,32.42
2023-03-26T19:40:22.762Z,32.45
2023-03-26T19:43:14.393Z,32.44
2023-03-26T19:46:02.036Z,32.40
2023-03-26T19:48:52.761Z,32.45
2023-03-26T19:51:41.171Z,32.47
2023-03-26T19:54:30.437Z,32.53
2023-03-26T19:57:18.013Z,32.46
2023-03-26T20:00:13.577Z,32.53
2023-03-26T20:03:00.846Z,32.52
2023-03-26T20:05:48.139Z,32.53
2023-03-26T20:08:35.045Z,32.56
2023-03-26T20:11:33.659Z,32.60
2023-03-26T20:14:26.430Z,32.57
2023-03-26T20:17:18.326Z,32.51
2023-03-26T20:20:06.879Z,32.56
2023-03-26T20:22:54.297Z,32.46
2023-03-26T20:25:46.434Z,32.57
2023-03-26T20:28:42.351Z,32.74
2023-03-26T20:31:35.106Z,32.71
2023-03-26T20:34:24.482Z,32.65
2023-03-26T20:37:11.690Z,32.61
2023-03-26T20:39:58.711Z,32.59
2023-03-26T20:42:46.333Z,32.57
2023-03-26T20:45:33.146Z,32.57
2023-03-26T20:48:19.976Z,32.67
2023-03-26T20:51:10.457Z,32.68
2023-03-26T20:53:57.335Z,32.69
2023-03-26T20:56:45.893Z,32.61
2023-03-26T20:59:32.998Z,32.62
2023-03-26T21:02:20.476Z,32.60
2023-03-26T21:05:14.611Z,32.68
2023-03-26T21:08:02.183Z,32.60
2023-03-26T21:10:50.120Z,32.67
2023-03-26T21:13:43.678Z,32.68
2023-03-26T21:16:31.658Z,32.51
2023-03-26T21:19:19.671Z,32.57
2023-03-26T21:22:25.890Z,32.58
2023-03-26T21:25:44.551Z,32.64
2023-03-26T21:28:51.878Z,32.63
2023-03-26T21:31:39.366Z,32.72
2023-03-26T21:34:27.551Z,32.63
2023-03-26T21:37:19.063Z,32.56
2023-03-26T21:40:17.149Z,32.64
2023-03-26T21:43:04.783Z,32.65
2023-03-26T21:45:54.880Z,32.67
2023-03-26T21:48:43.632Z,32.72
2023-03-26T21:51:30.461Z,32.67
2023-03-26T21:54:29.523Z,32.64
2023-03-26T21:58:04.500Z,32.54
2023-03-26T22:01:11.888Z,32.66
2023-03-26T22:04:28.675Z,32.59
2023-03-26T22:07:23.388Z,32.64
2023-03-26T22:10:10.296Z,32.57
2023-03-26T22:12:58.027Z,32.56
2023-03-26T22:15:46.291Z,32.61
2023-03-26T22:18:33.598Z,32.64
2023-03-26T22:21:20.713Z,32.67
2023-03-26T22:24:08.752Z,32.52
2023-03-26T22:26:56.322Z,32.63
2023-03-26T22:29:43.267Z,32.66
2023-03-26T22:32:32.803Z,32.70
2023-03-26T22:35:20.569Z,32.60
2023-03-26T22:38:07.821Z,32.54
2023-03-26T22:40:57.109Z,32.61
2023-03-26T22:43:46.230Z,32.64
2023-03-26T22:46:33.625Z,32.68
2023-03-26T22:49:21.112Z,32.70
2023-03-26T22:52:07.915Z,32.71
2023-03-26T22:54:55.041Z,32.60
2023-03-26T22:57:42.998Z,32.64
2023-03-26T23:00:30.807Z,32.66
2023-03-26T23:03:22.128Z,32.64
2023-03-26T23:06:23.081Z,32.66
2023-03-26T23:09:10.831Z,32.76
2023-03-26T23:11:58.676Z,32.80
2023-03-26T23:14:45.456Z,32.73
2023-03-26T23:17:35.572Z,32.78
2023-03-26T23:20:22.659Z,32.80
2023-03-26T23:23:09.677Z,32.68
2023-03-26T23:26:02.297Z,32.67
2023-03-26T23:28:51.219Z,32.76
2023-03-26T23:31:38.675Z,32.86
2023-03-26T23:34:26.547Z,32.76
2023-03-26T23:37:14.281Z,32.84
2023-03-26T23:40:01.416Z,32.79
2023-03-26T23:42:49.754Z,32.75
2023-03-26T23:45:37.568Z,32.70
2023-03-26T23:48:25.720Z,32.78
2023-03-26T23:51:12.544Z,32.79
2023-03-26T23:54:00.722Z,32.70
2023-03-26T23:56:49.316Z,32.79
2023-03-26T23:59:36.132Z,32.87
